Time;durP1;ratioP1;P1;durP2;ratioP2;P2;SDS_P1;SDS_P2;PMS_P1;PMS_P2;Temp;Humidity;BMP_temperature;BMP_pressure;BME280_temperature;BME280_humidity;BME280_pressure;Samples;Min_cycle;Max_cycle;Signal;HPM_P1;HPM_P2
2024/01/10 00:00:09;;;;;;;10.40;2.30;;;27.30;67.90;;;;;;5054962;28;20184;-71
2024/01/10 00:02:37;;;;;;;11.17;2.57;;;27.40;67.30;;;;;;5057002;28;20199;-71
2024/01/10 00:05:04;;;;;;;8.90;2.17;;;27.20;67.70;;;;;;5067732;28;20198;-72
2024/01/10 00:07:32;;;;;;;11.10;2.57;;;27.10;68.50;;;;;;5067391;28;20184;-72
2024/01/10 00:10:02;;;;;;;8.57;2.37;;;27.10;68.70;;;;;;5063743;28;20392;-72
2024/01/10 00:12:34;;;;;;;8.53;2.27;;;27.30;68.50;;;;;;5064152;28;20218;-72
2024/01/10 00:15:05;;;;;;;5.57;2.00;;;27.50;67.70;;;;;;5056875;28;20188;-73
2024/01/10 00:17:33;;;;;;;13.10;2.47;;;27.20;67.90;;;;;;5064495;28;20663;-71
2024/01/10 00:20:00;;;;;;;9.10;2.33;;;27.20;68.20;;;;;;5065999;28;20596;-70
2024/01/10 00:22:27;;;;;;;12.10;2.67;;;27.10;68.70;;;;;;5065059;28;20191;-72
2024/01/10 00:24:55;;;;;;;7.93;2.37;;;27.40;67.30;;;;;;5065751;28;20183;-72
2024/01/10 00:27:22;;;;;;;8.13;2.40;;;27.40;68.00;;;;;;5066353;28;20542;-71
2024/01/10 00:29:51;;;;;;;12.83;3.73;;;27.80;67.10;;;;;;5071090;28;20183;-72
2024/01/10 00:32:18;;;;;;;7.63;2.20;;;28.10;65.40;;;;;;5070385;28;20219;-73
2024/01/10 00:34:46;;;;;;;8.50;2.23;;;28.00;66.40;;;;;;5059933;28;20547;-72
2024/01/10 00:37:13;;;;;;;10.80;2.53;;;28.00;66.20;;;;;;5070443;28;20653;-73
2024/01/10 00:39:40;;;;;;;8.87;2.60;;;28.30;64.90;;;;;;5063050;28;20184;-72
2024/01/10 00:42:08;;;;;;;9.43;2.87;;;28.40;65.30;;;;;;5056457;28;20251;-72
2024/01/10 00:44:36;;;;;;;13.10;3.00;;;28.30;64.30;;;;;;5049188;28;20259;-72
2024/01/10 00:47:03;;;;;;;10.33;2.60;;;28.60;64.90;;;;;;5055359;28;20278;-72
2024/01/10 00:49:33;;;;;;;10.83;2.50;;;28.80;64.10;;;;;;5055816;28;20188;-72
2024/01/10 00:52:07;;;;;;;11.23;2.97;;;28.70;63.70;;;;;;5065343;28;20249;-72
2024/01/10 00:54:35;;;;;;;16.10;2.50;;;28.90;63.00;;;;;;5059640;28;20187;-72
2024/01/10 00:57:03;;;;;;;6.97;2.47;;;28.80;63.40;;;;;;5056830;28;20192;-72
2024/01/10 00:59:31;;;;;;;9.40;2.30;;;28.90;64.00;;;;;;5038736;28;20190;-72
2024/01/10 01:01:59;;;;;;;7.33;2.37;;;29.40;62.90;;;;;;5045321;28;20183;-72
2024/01/10 01:04:28;;;;;;;8.60;2.60;;;29.40;62.20;;;;;;5062222;28;20184;-73
2024/01/10 01:06:56;;;;;;;10.00;2.47;;;29.60;61.10;;;;;;5061066;28;20522;-72
2024/01/10 01:09:24;;;;;;;10.87;2.67;;;29.90;61.00;;;;;;5061005;28;20210;-73
2024/01/10 01:11:52;;;;;;;7.20;2.53;;;29.70;60.90;;;;;;5058286;28;20204;-72
2024/01/10 01:14:20;;;;;;;6.93;2.60;;;29.70;61.10;;;;;;5019606;28;20231;-74
2024/01/10 01:16:48;;;;;;;7.33;2.37;;;29.40;61.10;;;;;;5065545;28;20544;-73
2024/01/10 01:19:17;;;;;;;8.70;2.67;;;29.70;60.90;;;;;;5057937;28;20206;-72
2024/01/10 01:21:45;;;;;;;8.23;2.20;;;29.60;62.10;;;;;;5051173;28;20234;-73
2024/01/10 01:24:14;;;;;;;8.73;2.63;;;30.20;60.90;;;;;;5041924;28;20192;-74
2024/01/10 01:26:44;;;;;;;10.03;2.50;;;29.80;61.10;;;;;;5048697;28;20187;-74
2024/01/10 01:29:12;;;;;;;13.07;2.80;;;29.60;61.70;;;;;;5058157;28;20638;-72
2024/01/10 01:31:40;;;;;;;9.00;2.53;;;29.50;62.20;;;;;;5042730;28;20247;-73
2024/01/10 01:34:13;;;;;;;11.17;2.63;;;29.60;62.20;;;;;;5067133;28;20176;-73
2024/01/10 01:36:45;;;;;;;11.90;2.67;;;29.90;62.00;;;;;;5053456;28;20188;-74
2024/01/10 01:39:16;;;;;;;9.60;2.83;;;29.80;61.70;;;;;;5063803;28;20186;-73
2024/01/10 01:41:47;;;;;;;8.17;2.40;;;29.80;61.60;;;;;;5056043;28;20219;-73
2024/01/10 01:44:18;;;;;;;10.47;2.60;;;29.60;62.00;;;;;;5069354;28;20187;-74
2024/01/10 01:46:52;;;;;;;8.03;2.33;;;29.70;62.00;;;;;;5059925;28;20267;-72
2024/01/10 01:49:21;;;;;;;9.00;3.40;;;29.80;62.70;;;;;;5048278;28;20520;-72
2024/01/10 01:51:50;;;;;;;7.40;2.33;;;29.90;60.90;;;;;;5056067;28;20234;-71
2024/01/10 01:54:20;;;;;;;9.77;2.60;;;29.90;60.90;;;;;;5055539;28;20183;-73
2024/01/10 01:56:52;;;;;;;10.60;2.93;;;29.80;60.90;;;;;;5073293;28;20698;-72
2024/01/10 01:59:21;;;;;;;7.17;2.73;;;29.90;61.10;;;;;;5053426;28;20179;-73
2024/01/10 02:01:50;;;;;;;6.00;2.43;;;29.90;61.10;;;;;;5045899;28;20187;-74
2024/01/10 02:04:23;;;;;;;8.87;2.50;;;29.90;61.00;;;;;;5043473;28;20207;-73
2024/01/10 02:06:54;;;;;;;7.00;2.37;;;30.20;61.10;;;;;;5063994;28;20541;-72
2024/01/10 02:09:22;;;;;;;6.47;2.47;;;29.90;61.20;;;;;;5054432;28;20183;-71
2024/01/10 02:11:58;;;;;;;8.37;2.87;;;29.90;61.00;;;;;;5060251;28;20257;-73
2024/01/10 02:14:27;;;;;;;7.57;2.60;;;29.50;61.80;;;;;;5035740;28;20487;-74
2024/01/10 02:16:55;;;;;;;7.43;2.50;;;29.80;61.20;;;;;;5038230;28;20245;-73
2024/01/10 02:19:27;;;;;;;9.97;3.27;;;29.60;61.70;;;;;;5063483;28;20210;-73
2024/01/10 02:21:57;;;;;;;6.00;2.80;;;30.00;61.40;;;;;;5038646;28;20189;-72
2024/01/10 02:24:28;;;;;;;8.63;2.80;;;29.90;61.20;;;;;;5032442;28;20184;-74
2024/01/10 02:26:57;;;;;;;6.33;2.73;;;29.80;61.20;;;;;;5049708;28;20175;-73
2024/01/10 02:29:25;;;;;;;6.50;2.87;;;29.70;61.70;;;;;;5050351;28;20192;-72
2024/01/10 02:31:53;;;;;;;7.13;3.13;;;29.90;61.80;;;;;;5065128;28;20624;-72
2024/01/10 02:34:21;;;;;;;8.17;3.33;;;29.50;62.50;;;;;;5026077;28;20306;-73
2024/01/10 02:36:49;;;;;;;9.20;4.10;;;29.80;61.80;;;;;;5059561;28;20646;-73
2024/01/10 02:39:19;;;;;;;7.10;3.03;;;29.60;62.20;;;;;;5058060;28;20727;-73
2024/01/10 02:41:47;;;;;;;6.53;3.37;;;30.00;61.60;;;;;;5027041;28;20228;-72
2024/01/10 02:44:19;;;;;;;10.77;3.40;;;29.90;61.50;;;;;;5037130;28;20776;-73
2024/01/10 02:46:47;;;;;;;6.33;3.10;;;29.80;62.00;;;;;;5053293;28;20187;-73
2024/01/10 02:49:16;;;;;;;6.93;3.37;;;29.90;61.50;;;;;;5054212;28;20211;-73
2024/01/10 02:51:45;;;;;;;7.17;4.10;;;30.20;60.50;;;;;;5056523;28;20219;-71
2024/01/10 02:54:13;;;;;;;10.10;3.77;;;29.90;61.60;;;;;;5059307;28;20187;-73
2024/01/10 02:56:46;;;;;;;9.17;4.63;;;30.00;61.70;;;;;;5044771;28;20189;-73
2024/01/10 02:59:15;;;;;;;8.00;4.47;;;30.30;61.20;;;;;;5052862;28;20298;-70
2024/01/10 03:01:44;;;;;;;8.90;5.00;;;29.80;63.10;;;;;;5060533;28;20660;-71
2024/01/10 03:04:12;;;;;;;9.43;4.97;;;29.80;62.40;;;;;;5048682;28;20270;-72
2024/01/10 03:06:41;;;;;;;9.67;4.83;;;30.10;62.00;;;;;;5053702;28;20195;-73
2024/01/10 03:09:09;;;;;;;8.03;4.60;;;30.20;62.40;;;;;;5028000;28;20188;-72
2024/01/10 03:11:37;;;;;;;9.32;5.22;;;30.30;61.30;;;;;;5048629;28;20669;-72
2024/01/10 03:14:13;;;;;;;6.87;4.60;;;30.10;62.10;;;;;;5052418;28;20187;-72
2024/01/10 03:16:41;;;;;;;9.02;4.75;;;30.30;61.70;;;;;;5051542;28;20183;-72
2024/01/10 03:19:09;;;;;;;8.27;4.85;;;30.60;60.60;;;;;;5056514;28;20191;-72
2024/01/10 03:21:37;;;;;;;7.67;5.23;;;30.70;59.80;;;;;;5057156;28;20188;-71
2024/01/10 03:24:06;;;;;;;16.65;7.47;;;30.80;59.80;;;;;;5053227;28;20183;-72
2024/01/10 03:26:34;;;;;;;12.05;8.68;;;30.80;59.70;;;;;;5055701;28;20211;-72
2024/01/10 03:29:01;;;;;;;12.02;7.45;;;30.70;59.40;;;;;;5055677;28;20195;-73
2024/01/10 03:31:30;;;;;;;11.68;8.27;;;30.60;59.60;;;;;;5051254;28;20257;-73
2024/01/10 03:34:00;;;;;;;13.67;7.30;;;30.90;58.80;;;;;;5059779;28;20176;-74
2024/01/10 03:36:28;;;;;;;12.18;7.75;;;30.90;58.60;;;;;;5052144;28;20179;-73
2024/01/10 03:38:55;;;;;;;10.10;7.40;;;31.00;58.60;;;;;;5056740;28;20249;-74
2024/01/10 03:41:23;;;;;;;11.36;6.76;;;31.00;58.60;;;;;;4971459;28;2975106;-72
2024/01/10 03:43:52;;;;;;;10.85;6.07;;;30.40;60.50;;;;;;5052164;28;20192;-72
2024/01/10 03:46:19;;;;;;;11.45;6.20;;;30.40;60.70;;;;;;5043938;28;20176;-73
2024/01/10 03:48:48;;;;;;;12.70;7.18;;;30.30;61.60;;;;;;5059425;28;20186;-74
2024/01/10 03:51:17;;;;;;;11.57;7.57;;;30.70;61.10;;;;;;5050788;28;20216;-73
2024/01/10 03:53:45;;;;;;;11.07;7.65;;;30.70;60.00;;;;;;5060746;28;20671;-73
2024/01/10 03:56:15;;;;;;;10.90;6.72;;;30.80;60.10;;;;;;5057596;28;20179;-73
2024/01/10 03:58:42;;;;;;;11.85;6.32;;;30.90;59.20;;;;;;5056495;28;20192;-73
2024/01/10 04:01:10;;;;;;;10.40;6.72;;;30.70;59.80;;;;;;5049314;28;20271;-72
2024/01/10 04:03:38;;;;;;;11.48;6.72;;;31.10;59.80;;;;;;5060219;28;20701;-73
2024/01/10 04:06:05;;;;;;;11.43;6.55;;;31.40;58.60;;;;;;5057463;28;20198;-74
2024/01/10 04:08:32;;;;;;;9.88;5.93;;;30.70;60.00;;;;;;5065986;28;20205;-72
2024/01/10 04:11:00;;;;;;;8.23;5.95;;;31.00;59.50;;;;;;5055799;28;20199;-73
2024/01/10 04:13:27;;;;;;;9.27;6.05;;;30.40;61.60;;;;;;5067160;28;20184;-74
2024/01/10 04:15:54;;;;;;;10.43;6.10;;;31.00;60.20;;;;;;5064815;28;20198;-74
2024/01/10 04:18:22;;;;;;;10.77;6.75;;;31.10;60.00;;;;;;5064226;28;20175;-72
2024/01/10 04:20:50;;;;;;;13.88;5.47;;;31.50;58.30;;;;;;5056067;28;20211;-73
2024/01/10 04:23:18;;;;;;;12.07;5.90;;;31.90;58.00;;;;;;5055902;28;20192;-73
2024/01/10 04:25:45;;;;;;;7.45;5.28;;;31.70;58.90;;;;;;5051778;28;20185;-72
2024/01/10 04:28:12;;;;;;;10.07;6.60;;;31.80;58.50;;;;;;5050367;28;20519;-74
2024/01/10 04:30:40;;;;;;;10.90;6.03;;;31.90;56.70;;;;;;5046832;28;20267;-74
2024/01/10 04:33:07;;;;;;;10.48;6.07;;;31.30;58.90;;;;;;5054364;28;20685;-73
2024/01/10 04:35:34;;;;;;;7.97;5.60;;;31.10;58.90;;;;;;5057254;28;20200;-74
2024/01/10 04:38:02;;;;;;;9.48;6.05;;;30.90;59.50;;;;;;5046537;28;20258;-72
2024/01/10 04:40:29;;;;;;;10.20;5.40;;;31.00;59.10;;;;;;5060142;28;20552;-73
2024/01/10 04:42:57;;;;;;;6.28;4.53;;;31.10;59.30;;;;;;5061966;28;20231;-72
2024/01/10 04:45:24;;;;;;;7.93;5.25;;;31.10;59.40;;;;;;5059875;28;20203;-73
2024/01/10 04:47:51;;;;;;;7.97;4.57;;;30.90;60.30;;;;;;5064252;28;20180;-73
2024/01/10 04:50:19;;;;;;;7.57;5.43;;;30.80;60.50;;;;;;5053877;28;20326;-73
2024/01/10 04:52:46;;;;;;;7.15;5.22;;;31.10;59.60;;;;;;5066380;28;20670;-72
2024/01/10 04:55:13;;;;;;;8.98;6.47;;;30.60;60.80;;;;;;5058545;28;20190;-72
2024/01/10 04:57:40;;;;;;;9.88;5.47;;;31.10;59.00;;;;;;5054895;28;20195;-72
2024/01/10 05:00:08;;;;;;;8.45;5.30;;;31.10;59.30;;;;;;5055205;28;20180;-73
2024/01/10 05:02:35;;;;;;;6.55;5.35;;;31.50;57.90;;;;;;5061521;28;20207;-71
2024/01/10 05:05:04;;;;;;;6.35;4.32;;;31.00;59.10;;;;;;5062625;28;20184;-72
2024/01/10 05:07:31;;;;;;;5.85;4.38;;;31.20;59.10;;;;;;5065065;28;20266;-72
2024/01/10 05:09:59;;;;;;;5.05;4.53;;;31.40;58.80;;;;;;5062236;28;20191;-73
2024/01/10 05:12:26;;;;;;;10.32;4.82;;;32.00;57.60;;;;;;5051104;28;20216;-71
2024/01/10 05:14:54;;;;;;;6.82;4.45;;;31.70;58.40;;;;;;5045447;28;20179;-72
2024/01/10 05:17:21;;;;;;;7.38;4.20;;;30.60;61.10;;;;;;5054365;28;20271;-73
2024/01/10 05:19:48;;;;;;;5.90;3.60;;;30.20;62.80;;;;;;5060363;28;20536;-71
2024/01/10 05:22:16;;;;;;;8.45;4.10;;;29.50;64.70;;;;;;5055988;28;20487;-72
2024/01/10 05:24:43;;;;;;;6.75;4.35;;;29.10;66.10;;;;;;5056246;28;20175;-73
2024/01/10 05:27:11;;;;;;;8.13;4.37;;;28.90;67.60;;;;;;5052948;28;20199;-72
2024/01/10 05:29:38;;;;;;;9.53;4.40;;;28.80;67.20;;;;;;5050764;28;20186;-72
2024/01/10 05:32:06;;;;;;;10.07;3.70;;;28.90;67.00;;;;;;5053404;28;20215;-71
2024/01/10 05:34:33;;;;;;;8.77;4.20;;;28.90;67.00;;;;;;5053823;28;20188;-72
2024/01/10 05:37:01;;;;;;;10.17;4.40;;;28.60;68.40;;;;;;5047908;28;20187;-71
2024/01/10 05:39:28;;;;;;;9.40;3.87;;;28.80;67.70;;;;;;5058094;28;20658;-72
2024/01/10 05:41:55;;;;;;;6.97;4.37;;;28.60;68.90;;;;;;5053113;28;20235;-71
2024/01/10 05:44:22;;;;;;;7.93;4.03;;;28.50;69.20;;;;;;5042346;28;20271;-72
2024/01/10 05:46:50;;;;;;;9.67;4.47;;;28.50;69.20;;;;;;5050794;28;20648;-71
2024/01/10 05:49:17;;;;;;;6.03;3.73;;;28.70;68.30;;;;;;5060958;28;20507;-70
2024/01/10 05:51:44;;;;;;;6.83;3.67;;;28.80;67.50;;;;;;5059966;28;20219;-71
2024/01/10 05:54:12;;;;;;;7.33;3.80;;;28.20;70.00;;;;;;5059395;28;20172;-73
2024/01/10 05:56:39;;;;;;;7.97;3.43;;;28.40;70.40;;;;;;5063918;28;20242;-72
2024/01/10 05:59:07;;;;;;;6.33;3.80;;;28.60;69.40;;;;;;5034375;28;20241;-73
2024/01/10 06:01:34;;;;;;;10.93;3.40;;;28.70;69.40;;;;;;5056425;28;20217;-73
2024/01/10 06:04:02;;;;;;;4.67;3.40;;;29.00;68.30;;;;;;5057177;28;20520;-72
2024/01/10 06:06:29;;;;;;;7.23;3.40;;;29.20;68.00;;;;;;5063056;28;20198;-74
2024/01/10 06:08:56;;;;;;;4.97;2.77;;;29.80;66.90;;;;;;5055457;28;20179;-72
2024/01/10 06:11:24;;;;;;;6.60;3.50;;;29.80;65.50;;;;;;5044112;28;20227;-73
2024/01/10 06:13:51;;;;;;;6.65;3.03;;;29.40;66.80;;;;;;5050289;28;20179;-71
2024/01/10 06:16:18;;;;;;;7.20;2.83;;;30.00;64.70;;;;;;5047382;28;20183;-69
2024/01/10 06:18:45;;;;;;;5.93;2.83;;;29.60;66.70;;;;;;5055473;28;20179;-71
2024/01/10 06:21:13;;;;;;;6.47;2.90;;;29.90;65.80;;;;;;5059372;28;20180;-70
2024/01/10 06:23:41;;;;;;;4.13;2.65;;;30.30;65.20;;;;;;5053808;28;20650;-71
2024/01/10 06:26:08;;;;;;;5.40;2.85;;;30.10;66.10;;;;;;5059749;28;20210;-72
2024/01/10 06:28:35;;;;;;;7.78;3.47;;;30.50;64.40;;;;;;5062096;28;20186;-72
2024/01/10 06:31:02;;;;;;;8.68;3.38;;;30.80;64.10;;;;;;5048721;28;20187;-70
2024/01/10 06:33:30;;;;;;;8.05;2.80;;;31.10;63.30;;;;;;5059905;28;20184;-70
2024/01/10 06:35:58;;;;;;;5.07;3.25;;;31.50;60.70;;;;;;5046438;28;20181;-72
2024/01/10 06:38:25;;;;;;;8.45;2.60;;;30.90;62.90;;;;;;5053263;28;20567;-71
2024/01/10 06:40:53;;;;;;;6.90;3.00;;;30.20;65.10;;;;;;5053027;28;20184;-72
2024/01/10 06:43:20;;;;;;;7.38;3.55;;;29.50;66.70;;;;;;5051187;28;20227;-72
2024/01/10 06:45:48;;;;;;;4.43;2.85;;;29.30;68.20;;;;;;5062888;28;20196;-72
2024/01/10 06:48:15;;;;;;;4.80;2.37;;;29.80;67.00;;;;;;5057517;28;20638;-72
2024/01/10 06:50:44;;;;;;;8.77;3.13;;;30.40;64.60;;;;;;5057419;28;20187;-70
2024/01/10 06:53:11;;;;;;;7.43;2.90;;;29.80;66.10;;;;;;5063516;28;20230;-72
2024/01/10 06:55:38;;;;;;;6.05;3.05;;;29.80;66.20;;;;;;5058583;28;20184;-72
2024/01/10 06:58:06;;;;;;;4.57;2.70;;;29.30;68.30;;;;;;5056327;28;20289;-73
2024/01/10 07:00:38;;;;;;;8.67;3.10;;;29.10;68.80;;;;;;5026544;28;20292;-73
2024/01/10 07:03:06;;;;;;;7.80;2.80;;;28.80;69.60;;;;;;5048598;28;20294;-71
2024/01/10 07:05:33;;;;;;;7.17;3.20;;;28.80;69.50;;;;;;5046620;28;20531;-72
2024/01/10 07:08:02;;;;;;;4.67;2.60;;;28.80;69.40;;;;;;5043698;28;20191;-70
2024/01/10 07:10:34;;;;;;;6.50;3.00;;;28.70;69.70;;;;;;5041962;28;20184;-71
2024/01/10 07:13:04;;;;;;;5.73;2.57;;;28.40;70.10;;;;;;5042915;28;20230;-72
2024/01/10 07:15:31;;;;;;;6.23;2.63;;;28.30;70.00;;;;;;5055652;28;20275;-70
2024/01/10 07:17:59;;;;;;;5.50;2.73;;;28.00;70.70;;;;;;5047467;28;20250;-73
2024/01/10 07:20:26;;;;;;;6.07;2.87;;;28.00;71.60;;;;;;5054139;28;20180;-72
2024/01/10 07:22:54;;;;;;;7.37;3.13;;;28.10;71.10;;;;;;5046219;28;20245;-71
2024/01/10 07:25:25;;;;;;;8.67;2.87;;;27.90;71.00;;;;;;5047198;28;20183;-71
2024/01/10 07:27:55;;;;;;;5.50;2.67;;;27.90;71.70;;;;;;5048066;28;20183;-71
2024/01/10 07:30:22;;;;;;;6.60;3.03;;;27.70;71.90;;;;;;5050820;28;20682;-71
2024/01/10 07:32:50;;;;;;;6.10;2.50;;;27.70;72.40;;;;;;5057237;28;20248;-71
2024/01/10 07:35:17;;;;;;;8.73;3.10;;;27.70;72.40;;;;;;5054212;28;20172;-71
2024/01/10 07:37:44;;;;;;;5.80;2.83;;;27.60;72.60;;;;;;5049302;28;20195;-72
2024/01/10 07:40:13;;;;;;;4.10;2.70;;;27.60;72.70;;;;;;5062147;28;20229;-72
2024/01/10 07:42:40;;;;;;;6.73;3.10;;;27.40;72.60;;;;;;5046514;28;20272;-71
2024/01/10 07:45:11;;;;;;;4.43;2.80;;;27.40;73.20;;;;;;5052542;28;20634;-73
2024/01/10 07:47:39;;;;;;;7.03;3.30;;;27.50;73.00;;;;;;5041608;28;20670;-73
2024/01/10 07:50:07;;;;;;;4.17;2.50;;;27.60;72.70;;;;;;5062056;28;20344;-72
2024/01/10 07:52:35;;;;;;;12.77;4.67;;;27.80;72.50;;;;;;5050641;28;20227;-73
2024/01/10 07:55:06;;;;;;;4.67;2.87;;;27.70;72.10;;;;;;5051088;28;20186;-72
2024/01/10 07:57:35;;;;;;;6.93;3.03;;;27.90;71.70;;;;;;5044775;28;20254;-74
2024/01/10 08:00:03;;;;;;;5.37;2.53;;;27.80;71.40;;;;;;5050814;28;20191;-73
2024/01/10 08:02:33;;;;;;;5.50;2.50;;;27.80;71.50;;;;;;5054293;28;20257;-73
2024/01/10 08:05:10;;;;;;;6.10;2.60;;;27.60;71.60;;;;;;5047120;28;20184;-71
2024/01/10 08:07:38;;;;;;;5.47;2.33;;;27.50;71.80;;;;;;5052362;28;20210;-72
2024/01/10 08:10:08;;;;;;;5.80;2.83;;;27.50;72.30;;;;;;5052325;28;20191;-73
2024/01/10 08:12:36;;;;;;;4.73;2.60;;;27.40;72.80;;;;;;5052997;28;20670;-72
2024/01/10 08:15:04;;;;;;;5.30;2.83;;;27.30;73.10;;;;;;5058883;28;20612;-73
2024/01/10 08:17:32;;;;;;;6.97;2.83;;;27.30;73.40;;;;;;5061239;28;20180;-74
2024/01/10 08:20:00;;;;;;;6.73;2.90;;;27.10;74.60;;;;;;5052838;28;20175;-74
2024/01/10 08:22:28;;;;;;;4.23;2.33;;;27.00;74.50;;;;;;5070220;28;20215;-72
2024/01/10 08:24:56;;;;;;;6.43;2.57;;;26.80;74.90;;;;;;5071219;28;20190;-74
2024/01/10 08:27:26;;;;;;;6.80;2.57;;;26.60;75.90;;;;;;5064861;28;20187;-73
2024/01/10 08:29:54;;;;;;;6.67;2.90;;;26.60;76.00;;;;;;5059683;28;20188;-72
2024/01/10 08:32:24;;;;;;;4.07;2.20;;;26.50;76.50;;;;;;5030324;28;20224;-74
2024/01/10 08:34:51;;;;;;;8.37;2.77;;;26.50;76.30;;;;;;5047037;28;20183;-73
2024/01/10 08:37:18;;;;;;;12.07;3.27;;;26.50;76.50;;;;;;5070252;28;20594;-73
2024/01/10 08:39:46;;;;;;;5.57;2.70;;;26.50;76.90;;;;;;5061572;28;20183;-71
2024/01/10 08:42:13;;;;;;;6.93;2.33;;;26.40;76.90;;;;;;5070548;28;20223;-72
2024/01/10 08:44:40;;;;;;;5.80;2.73;;;26.30;77.70;;;;;;5070612;28;20634;-73
2024/01/10 08:47:08;;;;;;;4.63;2.40;;;26.30;77.70;;;;;;5055524;28;20191;-72
2024/01/10 08:49:36;;;;;;;5.83;2.70;;;26.20;78.10;;;;;;5057387;28;20183;-72
2024/01/10 08:52:03;;;;;;;4.13;2.50;;;26.20;78.50;;;;;;5074886;28;20634;-72
2024/01/10 08:54:31;;;;;;;6.37;2.73;;;26.00;78.50;;;;;;5074079;28;20577;-73
2024/01/10 08:57:02;;;;;;;8.13;3.27;;;26.00;78.40;;;;;;5069387;28;20221;-72
2024/01/10 08:59:30;;;;;;;6.33;2.63;;;25.90;79.00;;;;;;5070889;28;20263;-73
2024/01/10 09:01:57;;;;;;;7.63;2.70;;;25.90;79.00;;;;;;5048691;28;20176;-72
2024/01/10 09:04:25;;;;;;;5.70;2.57;;;25.80;79.10;;;;;;5072656;28;20175;-72
2024/01/10 09:06:53;;;;;;;5.70;2.70;;;25.70;79.30;;;;;;5074561;28;20175;-70
2024/01/10 09:09:20;;;;;;;5.63;2.97;;;25.70;79.30;;;;;;5074343;28;20261;-70
2024/01/10 09:11:48;;;;;;;4.57;2.80;;;25.70;79.60;;;;;;5073413;28;20203;-71
2024/01/10 09:14:16;;;;;;;6.47;2.90;;;25.70;80.00;;;;;;5055547;28;20262;-74
2024/01/10 09:16:43;;;;;;;7.50;2.70;;;25.60;80.20;;;;;;5052311;28;20543;-72
2024/01/10 09:19:11;;;;;;;6.07;2.63;;;25.60;80.30;;;;;;5070172;28;20167;-72
2024/01/10 09:21:38;;;;;;;6.00;2.83;;;25.60;80.40;;;;;;5074497;28;20542;-72
2024/01/10 09:24:11;;;;;;;6.73;2.73;;;25.60;80.70;;;;;;5075070;28;20266;-72
2024/01/10 09:26:38;;;;;;;7.83;3.37;;;25.50;80.60;;;;;;5041328;28;20184;-72
2024/01/10 09:29:06;;;;;;;5.03;2.43;;;25.50;80.80;;;;;;5070139;28;20683;-74
2024/01/10 09:31:33;;;;;;;8.67;3.03;;;25.50;80.90;;;;;;5049978;28;20600;-72
2024/01/10 09:34:01;;;;;;;7.67;3.17;;;25.50;81.00;;;;;;5069789;28;20645;-73
2024/01/10 09:36:28;;;;;;;5.53;2.80;;;25.50;81.20;;;;;;5074858;28;20182;-72
2024/01/10 09:38:59;;;;;;;6.63;3.20;;;25.50;81.50;;;;;;5073277;28;20207;-73
2024/01/10 09:41:31;;;;;;;6.80;3.27;;;25.50;81.40;;;;;;5061179;28;20190;-72
2024/01/10 09:44:02;;;;;;;5.57;3.10;;;25.50;81.50;;;;;;5069181;28;20266;-72
2024/01/10 09:46:34;;;;;;;7.57;3.23;;;25.50;81.40;;;;;;5055663;28;20308;-73
2024/01/10 09:49:02;;;;;;;7.43;3.07;;;25.50;81.40;;;;;;5060900;28;20171;-71
2024/01/10 09:51:34;;;;;;;8.00;3.40;;;25.60;81.30;;;;;;5072397;28;20673;-74
2024/01/10 09:54:06;;;;;;;5.73;3.43;;;25.60;80.90;;;;;;5036762;28;20184;-71
2024/01/10 09:56:36;;;;;;;7.43;3.83;;;25.60;80.70;;;;;;5049505;28;20267;-72
2024/01/10 09:59:07;;;;;;;7.27;4.33;;;25.60;80.80;;;;;;5069101;28;20179;-73
2024/01/10 10:01:35;;;;;;;8.17;3.57;;;25.70;80.80;;;;;;5032547;28;20187;-71
2024/01/10 10:04:07;;;;;;;6.07;3.57;;;25.80;80.40;;;;;;5073135;28;20588;-73
2024/01/10 10:06:35;;;;;;;4.80;3.63;;;25.80;80.20;;;;;;5073575;28;20225;-71
2024/01/10 10:09:03;;;;;;;7.43;3.93;;;25.80;80.10;;;;;;5074344;28;20195;-72
2024/01/10 10:11:31;;;;;;;6.43;4.00;;;25.80;79.80;;;;;;5073310;28;20570;-71
2024/01/10 10:14:15;;;;;;;9.33;3.43;;;25.80;79.60;;;;;;5073650;28;20191;-71
2024/01/10 10:16:49;;;;;;;5.27;3.50;;;25.80;79.50;;;;;;5057230;28;20187;-72
2024/01/10 10:19:24;;;;;;;6.20;3.77;;;25.80;79.40;;;;;;5062597;28;20666;-72
2024/01/10 10:22:08;;;;;;;5.57;3.07;;;25.70;79.20;;;;;;5073448;28;20239;-72
2024/01/10 10:24:36;;;;;;;6.57;3.77;;;25.70;79.00;;;;;;5066461;28;20175;-71
2024/01/10 10:27:15;;;;;;;9.17;4.60;;;25.70;79.30;;;;;;5053486;28;20650;-71
2024/01/10 10:29:43;;;;;;;6.60;4.10;;;25.70;79.10;;;;;;5041224;28;20215;-72
2024/01/10 10:32:10;;;;;;;8.27;4.30;;;25.70;79.40;;;;;;5063094;28;20214;-71
2024/01/10 10:34:44;;;;;;;5.90;3.77;;;25.80;79.30;;;;;;5073518;28;20209;-72
2024/01/10 10:37:14;;;;;;;6.13;3.60;;;25.80;79.10;;;;;;5048182;28;20184;-71
2024/01/10 10:39:45;;;;;;;3.97;2.87;;;25.80;79.00;;;;;;5034776;28;20184;-71
2024/01/10 10:42:17;;;;;;;5.20;3.40;;;25.80;78.70;;;;;;5053790;28;20220;-71
2024/01/10 10:44:46;;;;;;;6.03;3.30;;;25.70;78.80;;;;;;5062120;28;20187;-71
2024/01/10 10:47:17;;;;;;;7.97;3.20;;;25.60;78.80;;;;;;5058565;28;20188;-71
2024/01/10 10:49:52;;;;;;;5.30;2.63;;;25.50;79.00;;;;;;5048198;28;20196;-71
2024/01/10 10:52:31;;;;;;;4.93;2.90;;;25.50;79.20;;;;;;5066857;28;20352;-72
2024/01/10 10:55:04;;;;;;;6.83;2.93;;;25.40;79.00;;;;;;5057443;28;20171;-72
2024/01/10 10:57:36;;;;;;;4.57;3.00;;;25.40;79.00;;;;;;5069320;28;20274;-71
2024/01/10 11:00:07;;;;;;;5.03;2.80;;;25.30;78.90;;;;;;5050974;28;20184;-70
2024/01/10 11:02:35;;;;;;;5.10;2.80;;;25.30;79.00;;;;;;5054577;28;20215;-71
2024/01/10 11:05:03;;;;;;;7.27;2.83;;;25.30;79.10;;;;;;5055839;28;20540;-71
2024/01/10 11:07:31;;;;;;;3.73;3.00;;;25.30;79.10;;;;;;5071037;28;20183;-70
2024/01/10 11:10:00;;;;;;;6.33;3.20;;;25.30;79.30;;;;;;5059584;28;20199;-71
2024/01/10 11:12:54;;;;;;;4.60;3.20;;;25.20;79.60;;;;;;5057819;28;20215;-73
2024/01/10 11:15:47;;;;;;;8.03;3.00;;;25.20;79.60;;;;;;5053708;28;20195;-71
2024/01/10 11:18:57;;;;;;;6.73;3.23;;;25.20;79.60;;;;;;5044091;28;20296;-72
2024/01/10 11:21:42;;;;;;;7.27;3.10;;;25.20;79.70;;;;;;5008593;28;20202;-72
2024/01/10 11:24:10;;;;;;;5.97;3.30;;;25.20;79.70;;;;;;5068448;28;20202;-72
2024/01/10 11:26:41;;;;;;;7.37;3.13;;;25.20;79.70;;;;;;5072586;28;20684;-72
2024/01/10 11:29:09;;;;;;;8.83;3.43;;;25.10;80.00;;;;;;5044881;28;20521;-72
2024/01/10 11:31:39;;;;;;;5.83;3.13;;;25.10;80.20;;;;;;5040352;28;20212;-72
2024/01/10 11:34:06;;;;;;;7.97;3.50;;;25.10;80.50;;;;;;5058652;28;20191;-71
2024/01/10 11:36:34;;;;;;;6.70;3.23;;;25.00;80.80;;;;;;5072491;28;20183;-71
2024/01/10 11:39:05;;;;;;;5.87;3.70;;;25.00;81.20;;;;;;5072134;28;20274;-71
2024/01/10 11:41:38;;;;;;;7.87;3.13;;;25.00;81.70;;;;;;5071475;28;20757;-71
2024/01/10 11:44:26;;;;;;;11.07;3.60;;;24.90;81.80;;;;;;5064034;28;20212;-72
2024/01/10 11:46:55;;;;;;;10.27;3.53;;;24.90;82.20;;;;;;5054480;28;20212;-73
2024/01/10 11:49:25;;;;;;;8.93;3.70;;;24.90;82.50;;;;;;5044147;28;20211;-73
2024/01/10 11:52:00;;;;;;;9.60;3.67;;;24.90;82.70;;;;;;5061716;28;20215;-72
2024/01/10 11:54:45;;;;;;;6.67;3.60;;;24.80;82.40;;;;;;5075970;28;20253;-72
2024/01/10 11:57:13;;;;;;;7.43;3.47;;;24.80;82.30;;;;;;5075985;28;20179;-73
2024/01/10 11:59:47;;;;;;;6.80;3.17;;;24.70;82.10;;;;;;5066113;28;20180;-71
2024/01/10 12:02:19;;;;;;;5.73;3.30;;;24.70;82.10;;;;;;5059497;28;20197;-73
2024/01/10 12:04:50;;;;;;;5.10;3.50;;;24.70;82.10;;;;;;5060978;28;20631;-70
2024/01/10 12:07:18;;;;;;;5.67;3.20;;;24.70;82.10;;;;;;5055009;28;20186;-71
2024/01/10 12:09:49;;;;;;;9.40;3.50;;;24.70;82.20;;;;;;5054933;28;20660;-71
2024/01/10 12:12:17;;;;;;;6.90;3.23;;;24.70;82.10;;;;;;5073055;28;20551;-71
2024/01/10 12:14:45;;;;;;;4.47;3.10;;;24.70;82.20;;;;;;5064031;28;20274;-71
2024/01/10 12:17:13;;;;;;;7.50;3.60;;;24.70;82.20;;;;;;5052605;28;20176;-71
2024/01/10 12:19:44;;;;;;;5.87;3.37;;;24.70;82.10;;;;;;5065721;28;20509;-71
2024/01/10 12:22:12;;;;;;;7.77;3.63;;;24.60;82.10;;;;;;5055678;28;20186;-71
2024/01/10 12:24:49;;;;;;;5.90;3.47;;;24.60;82.20;;;;;;5054635;28;20184;-71
2024/01/10 12:27:20;;;;;;;6.67;3.20;;;24.60;82.30;;;;;;5068664;28;20183;-71
2024/01/10 12:29:51;;;;;;;6.37;3.30;;;24.50;82.60;;;;;;5048090;28;20646;-71
2024/01/10 12:32:22;;;;;;;6.83;3.37;;;24.50;82.60;;;;;;5052089;28;20293;-71
2024/01/10 12:34:49;;;;;;;6.20;3.07;;;24.50;82.60;;;;;;5063698;28;20179;-71
2024/01/10 12:37:17;;;;;;;7.73;4.03;;;24.40;82.80;;;;;;5064267;28;20187;-71
2024/01/10 12:39:44;;;;;;;6.50;3.20;;;24.40;82.90;;;;;;5058763;28;20176;-72
2024/01/10 12:42:12;;;;;;;6.43;3.27;;;24.40;83.00;;;;;;5063587;28;20227;-71
2024/01/10 12:44:44;;;;;;;8.43;3.43;;;24.40;83.10;;;;;;5070550;28;20190;-71
2024/01/10 12:47:23;;;;;;;6.73;3.30;;;24.30;83.20;;;;;;5049318;28;20216;-71
2024/01/10 12:49:51;;;;;;;8.27;3.90;;;24.30;83.20;;;;;;5042862;28;20208;-71
2024/01/10 12:52:21;;;;;;;7.53;4.00;;;24.30;83.40;;;;;;5044969;28;20222;-72
2024/01/10 12:54:48;;;;;;;8.57;3.80;;;24.30;83.40;;;;;;5048215;28;20216;-71